createdAt,value
2022-09-11T00:01:40.017Z,12.01
2022-09-11T00:04:12.486Z,12.01
2022-09-11T00:06:41.155Z,12.01
2022-09-11T00:09:13.405Z,12.01
2022-09-11T00:11:43.020Z,12.00
2022-09-11T00:14:13.654Z,12.00
2022-09-11T00:16:44.808Z,12.01
2022-09-11T00:19:15.439Z,12.01
2022-09-11T00:21:44.929Z,11.98
2022-09-11T00:24:13.256Z,11.92
2022-09-11T00:26:41.792Z,11.88
2022-09-11T00:29:12.967Z,11.88
2022-09-11T00:31:41.850Z,11.90
2022-09-11T00:34:13.277Z,11.90
2022-09-11T00:36:42.584Z,11.87
2022-09-11T00:39:13.634Z,11.84
2022-09-11T00:41:44.357Z,11.85
2022-09-11T00:44:44.885Z,11.89
2022-09-11T00:47:17.806Z,11.87
2022-09-11T00:49:50.899Z,11.87
2022-09-11T00:52:23.440Z,11.89
2022-09-11T00:54:57.728Z,11.93
2022-09-11T00:57:30.412Z,11.91
2022-09-11T01:00:04.241Z,11.88
2022-09-11T01:02:36.254Z,11.87
2022-09-11T01:05:06.342Z,11.88
2022-09-11T01:07:37.271Z,11.85
2022-09-11T01:10:10.774Z,11.87
2022-09-11T01:12:48.573Z,11.94
2022-09-11T01:15:23.810Z,11.98
2022-09-11T01:18:02.497Z,11.99
2022-09-11T01:20:47.744Z,12.01
2022-09-11T01:23:46.455Z,11.99
2022-09-11T01:26:37.206Z,11.94
2022-09-11T01:29:12.591Z,11.90
2022-09-11T01:31:47.852Z,11.88
2022-09-11T01:34:23.570Z,11.86
2022-09-11T01:37:00.368Z,11.85
2022-09-11T01:39:34.595Z,11.85
2022-09-11T01:42:07.163Z,11.82
2022-09-11T01:44:40.433Z,11.80
2022-09-11T01:47:12.772Z,11.77
2022-09-11T01:49:47.532Z,11.75
2022-09-11T01:52:22.074Z,11.71
2022-09-11T01:54:59.214Z,11.69
2022-09-11T01:57:31.994Z,11.68
2022-09-11T02:00:06.153Z,11.68
2022-09-11T02:02:47.649Z,11.67
2022-09-11T02:05:20.438Z,11.67
2022-09-11T02:07:59.613Z,11.67
2022-09-11T02:10:35.793Z,11.67
2022-09-11T02:13:11.360Z,11.68
2022-09-11T02:15:44.070Z,11.67
2022-09-11T02:18:19.862Z,11.65
2022-09-11T02:20:48.414Z,11.62
2022-09-11T02:23:17.355Z,11.61
2022-09-11T02:25:45.783Z,11.61
2022-09-11T02:28:14.182Z,11.62
2022-09-11T02:30:43.746Z,11.62
2022-09-11T02:33:33.033Z,11.61
2022-09-11T02:36:21.920Z,11.60
2022-09-11T02:39:05.690Z,11.56
2022-09-11T02:41:46.282Z,11.56
2022-09-11T02:44:28.168Z,11.57
2022-09-11T02:47:11.296Z,11.55
2022-09-11T02:49:50.905Z,11.54
2022-09-11T02:52:33.199Z,11.54
2022-09-11T02:55:10.233Z,11.54
2022-09-11T02:57:46.823Z,11.53
2022-09-11T03:00:15.978Z,11.53
2022-09-11T03:02:44.946Z,11.49
2022-09-11T03:05:13.494Z,11.48
2022-09-11T03:07:42.955Z,11.46
2022-09-11T03:10:12.316Z,11.45
2022-09-11T03:12:41.263Z,11.43
2022-09-11T03:15:12.550Z,11.42
2022-09-11T03:17:43.442Z,11.41
2022-09-11T03:20:12.477Z,11.38
2022-09-11T03:22:40.805Z,11.35
2022-09-11T03:25:14.597Z,11.36
2022-09-11T03:27:42.863Z,11.36
2022-09-11T03:30:13.525Z,11.35
2022-09-11T03:32:42.067Z,11.34
2022-09-11T03:35:13.571Z,11.34
2022-09-11T03:37:42.069Z,11.35
2022-09-11T03:40:12.740Z,11.35
2022-09-11T03:42:43.918Z,11.33
2022-09-11T03:45:15.606Z,11.30
2022-09-11T03:47:44.147Z,11.28
2022-09-11T03:50:13.455Z,11.26
2022-09-11T03:52:42.817Z,11.28
2022-09-11T03:55:12.145Z,11.30
2022-09-11T03:57:40.527Z,11.30
2022-09-11T04:00:14.150Z,11.32
2022-09-11T04:02:49.494Z,11.36
2022-09-11T04:05:28.930Z,11.40
2022-09-11T04:07:58.770Z,11.38
2022-09-11T04:10:27.301Z,11.35
2022-09-11T04:12:57.347Z,11.34
2022-09-11T04:15:25.728Z,11.32
2022-09-11T04:17:54.598Z,11.32
2022-09-11T04:20:24.340Z,11.31
2022-09-11T04:22:53.096Z,11.31
2022-09-11T04:25:21.815Z,11.31
2022-09-11T04:27:50.881Z,11.31
2022-09-11T04:30:19.325Z,11.36
2022-09-11T04:32:47.801Z,11.43
2022-09-11T04:35:16.659Z,11.47
2022-09-11T04:37:51.077Z,11.46
2022-09-11T04:40:21.171Z,11.40
2022-09-11T04:42:49.756Z,11.38
2022-09-11T04:45:22.705Z,11.38
2022-09-11T04:47:52.485Z,11.39
2022-09-11T04:50:21.033Z,11.38
2022-09-11T04:53:09.555Z,11.36
2022-09-11T04:55:38.573Z,11.33
2022-09-11T04:58:07.161Z,11.29
2022-09-11T05:00:38.989Z,11.28
2022-09-11T05:03:08.388Z,11.29
2022-09-11T05:05:36.912Z,11.29
2022-09-11T05:08:05.941Z,11.29
2022-09-11T05:10:38.384Z,11.30
2022-09-11T05:13:07.883Z,11.32
2022-09-11T05:15:36.286Z,11.34
2022-09-11T05:18:07.566Z,11.36
2022-09-11T05:20:36.143Z,11.37
2022-09-11T05:23:04.475Z,11.35
2022-09-11T05:25:32.959Z,11.33
2022-09-11T05:28:03.852Z,11.30
2022-09-11T05:30:33.106Z,11.29
2022-09-11T05:33:02.067Z,11.30
2022-09-11T05:35:32.582Z,11.36
2022-09-11T05:38:03.253Z,11.42
2022-09-11T05:40:31.858Z,11.43
2022-09-11T05:43:01.641Z,11.41
2022-09-11T05:45:31.401Z,11.38
2022-09-11T05:48:00.059Z,11.35
2022-09-11T05:50:31.338Z,11.35
2022-09-11T05:53:00.994Z,11.33
2022-09-11T05:55:33.176Z,11.33
2022-09-11T05:58:04.872Z,11.32
2022-09-11T06:01:04.768Z,11.31
2022-09-11T06:03:34.545Z,11.31
2022-09-11T06:06:04.933Z,11.29
2022-09-11T06:08:34.345Z,11.30
2022-09-11T06:11:11.473Z,11.30
2022-09-11T06:13:41.964Z,11.29
2022-09-11T06:16:18.055Z,11.27
2022-09-11T06:18:48.428Z,11.27
2022-09-11T06:21:19.533Z,11.27
2022-09-11T06:23:55.845Z,11.27
2022-09-11T06:26:29.327Z,11.26
2022-09-11T06:28:57.985Z,11.28
2022-09-11T06:31:28.777Z,11.27
2022-09-11T06:33:57.664Z,11.31
2022-09-11T06:36:29.326Z,11.33
2022-09-11T06:38:59.209Z,11.36
2022-09-11T06:41:29.770Z,11.39
2022-09-11T06:44:02.934Z,11.39
2022-09-11T06:46:32.020Z,11.39
2022-09-11T06:49:02.010Z,11.36
2022-09-11T06:51:30.802Z,11.36
2022-09-11T06:54:01.861Z,11.35
2022-09-11T06:56:34.152Z,11.37
2022-09-11T06:59:02.659Z,11.39
2022-09-11T07:01:33.827Z,11.38
2022-09-11T07:04:04.637Z,11.42
2022-09-11T07:06:34.594Z,11.44
2022-09-11T07:09:06.358Z,11.40
2022-09-11T07:11:43.342Z,11.41
2022-09-11T07:14:20.618Z,11.41
2022-09-11T07:16:50.477Z,11.45
2022-09-11T07:19:21.333Z,11.50
2022-09-11T07:21:49.649Z,11.55
2022-09-11T07:24:18.914Z,11.58
2022-09-11T07:26:47.242Z,11.62
2022-09-11T07:29:20.281Z,11.61
2022-09-11T07:31:49.882Z,11.58
2022-09-11T07:34:18.593Z,11.56
2022-09-11T07:36:51.302Z,11.54
2022-09-11T07:39:20.199Z,11.52
2022-09-11T07:41:53.120Z,11.53
2022-09-11T07:44:28.991Z,11.56
2022-09-11T07:46:58.324Z,11.57
2022-09-11T07:49:27.229Z,11.56
2022-09-11T07:51:56.255Z,11.58
2022-09-11T07:54:34.320Z,11.61
2022-09-11T07:57:02.637Z,11.60
2022-09-11T07:59:31.328Z,11.61
2022-09-11T08:02:00.148Z,11.61
2022-09-11T08:04:28.763Z,11.59
2022-09-11T08:06:58.173Z,11.58
2022-09-11T08:09:33.538Z,11.58
2022-09-11T08:12:04.259Z,11.59
2022-09-11T08:14:35.487Z,11.60
2022-09-11T08:17:09.564Z,11.57
2022-09-11T08:19:38.922Z,11.56
2022-09-11T08:22:08.205Z,11.54
2022-09-11T08:24:41.400Z,11.50
2022-09-11T08:27:09.878Z,11.48
2022-09-11T08:29:42.046Z,11.48
2022-09-11T08:32:13.089Z,11.50
2022-09-11T08:34:42.204Z,11.50
2022-09-11T08:37:11.728Z,11.48
2022-09-11T08:39:40.148Z,11.47
2022-09-11T08:42:13.671Z,11.51
2022-09-11T08:44:48.965Z,11.53
2022-09-11T08:47:28.282Z,11.58
2022-09-11T08:50:04.411Z,11.62
2022-09-11T08:52:37.144Z,11.65
2022-09-11T08:55:13.989Z,11.66
2022-09-11T08:57:52.329Z,11.66
2022-09-11T09:00:24.508Z,11.69
2022-09-11T09:03:29.595Z,11.72
2022-09-11T09:06:10.102Z,11.72
2022-09-11T09:08:50.345Z,11.68
2022-09-11T09:11:31.961Z,11.61
2022-09-11T09:14:25.673Z,11.56
2022-09-11T09:17:00.817Z,11.57
2022-09-11T09:19:33.593Z,11.54
2022-09-11T09:22:11.225Z,11.56
2022-09-11T09:24:49.502Z,11.58
2022-09-11T09:27:25.493Z,11.56
2022-09-11T09:29:55.478Z,11.51
2022-09-11T09:32:30.929Z,11.49
2022-09-11T09:35:05.093Z,11.43
2022-09-11T09:37:34.676Z,11.39
2022-09-11T09:40:07.750Z,11.34
2022-09-11T09:42:51.521Z,11.28
2022-09-11T09:45:36.867Z,11.23
2022-09-11T09:48:09.326Z,11.15
2022-09-11T09:50:41.441Z,11.06
2022-09-11T09:53:21.096Z,10.98
2022-09-11T09:55:52.336Z,10.91
2022-09-11T09:58:23.960Z,10.83
2022-09-11T10:00:52.949Z,10.77
2022-09-11T10:03:23.282Z,10.73
2022-09-11T10:05:54.163Z,10.72
2022-09-11T10:08:30.777Z,10.73
2022-09-11T10:11:00.974Z,10.77
2022-09-11T10:13:31.354Z,10.80
2022-09-11T10:16:01.719Z,10.83
2022-09-11T10:18:43.330Z,10.88
2022-09-11T10:21:22.270Z,10.91
2022-09-11T10:23:54.130Z,11.03
2022-09-11T10:26:28.915Z,11.14
2022-09-11T10:29:04.867Z,11.26
2022-09-11T10:31:35.234Z,11.39
2022-09-11T10:34:05.559Z,11.50
2022-09-11T10:36:34.662Z,11.61
2022-09-11T10:39:03.683Z,11.62
2022-09-11T10:41:33.610Z,11.66
2022-09-11T10:44:04.913Z,11.72
2022-09-11T10:46:39.471Z,11.80
2022-09-11T10:49:24.821Z,11.88
2022-09-11T10:52:16.059Z,11.97
2022-09-11T10:55:01.017Z,12.00
2022-09-11T10:57:34.707Z,12.08
2022-09-11T11:00:16.329Z,12.17
2022-09-11T11:02:50.649Z,12.31
2022-09-11T11:05:26.572Z,12.43
2022-09-11T11:08:22.538Z,12.56
2022-09-11T11:11:05.859Z,12.71
2022-09-11T11:13:55.120Z,12.84
2022-09-11T11:16:34.072Z,12.98
2022-09-11T11:19:34.389Z,13.07
2022-09-11T11:22:15.935Z,13.21
2022-09-11T11:24:55.999Z,13.30
2022-09-11T11:27:37.488Z,13.45
2022-09-11T11:30:16.759Z,13.54
2022-09-11T11:33:01.835Z,13.60
2022-09-11T11:35:36.276Z,13.63
2022-09-11T11:38:14.163Z,13.68
2022-09-11T11:40:49.147Z,13.71
2022-09-11T11:43:24.089Z,13.79
2022-09-11T11:45:57.577Z,13.84
2022-09-11T11:48:36.539Z,13.85
2022-09-11T11:51:08.501Z,13.90
2022-09-11T11:53:43.374Z,13.94
2022-09-11T11:56:23.193Z,13.93
2022-09-11T11:58:57.181Z,13.93
2022-09-11T12:01:34.733Z,13.96
2022-09-11T12:04:09.863Z,14.00
2022-09-11T12:06:38.582Z,14.03
2022-09-11T12:09:10.082Z,14.06
2022-09-11T12:11:39.041Z,14.10
2022-09-11T12:14:25.646Z,14.18
2022-09-11T12:16:55.956Z,14.27
2022-09-11T12:19:25.081Z,14.36
2022-09-11T12:22:12.476Z,14.44
2022-09-11T12:24:59.542Z,14.48
2022-09-11T12:27:52.664Z,14.56
2022-09-11T12:30:25.564Z,14.64
2022-09-11T12:32:55.703Z,14.69
2022-09-11T12:35:40.247Z,14.74
2022-09-11T12:38:19.004Z,14.74
2022-09-11T12:40:54.118Z,14.76
2022-09-11T12:43:45.509Z,14.80
2022-09-11T12:46:52.477Z,14.83
2022-09-11T12:49:24.346Z,14.84
2022-09-11T12:51:55.390Z,14.84
2022-09-11T12:54:39.497Z,14.90
2022-09-11T12:57:14.435Z,14.95
2022-09-11T12:59:46.531Z,14.97
2022-09-11T13:02:28.062Z,15.02
2022-09-11T13:04:57.860Z,15.05
2022-09-11T13:07:36.480Z,15.09
2022-09-11T13:10:09.553Z,15.16
2022-09-11T13:12:51.834Z,15.24
2022-09-11T13:15:40.332Z,15.31
2022-09-11T13:18:30.866Z,15.35
2022-09-11T13:21:01.935Z,15.41
2022-09-11T13:23:30.366Z,15.41
2022-09-11T13:26:04.222Z,15.39
2022-09-11T13:28:45.645Z,15.39
2022-09-11T13:31:19.408Z,15.37
2022-09-11T13:33:52.603Z,15.39
2022-09-11T13:36:24.509Z,15.35
2022-09-11T13:38:57.789Z,15.33
2022-09-11T13:41:29.789Z,15.34
2022-09-11T13:44:00.809Z,15.35
2022-09-11T13:46:32.934Z,15.37
2022-09-11T13:49:27.374Z,15.39
2022-09-11T13:51:59.368Z,15.37
2022-09-11T13:54:31.377Z,15.34
2022-09-11T13:57:16.621Z,15.34
2022-09-11T13:59:47.020Z,15.35
2022-09-11T14:02:45.777Z,15.35
2022-09-11T14:05:20.686Z,15.35
2022-09-11T14:08:04.108Z,15.38
2022-09-11T14:10:36.687Z,15.46
2022-09-11T14:13:14.123Z,15.55
2022-09-11T14:15:47.748Z,15.67
2022-09-11T14:18:26.042Z,15.73
2022-09-11T14:21:13.270Z,15.76
2022-09-11T14:23:54.942Z,15.75
2022-09-11T14:26:25.082Z,15.73
2022-09-11T14:29:24.218Z,15.69
2022-09-11T14:31:53.662Z,15.66
2022-09-11T14:34:25.370Z,15.58
2022-09-11T14:36:57.693Z,15.52
2022-09-11T14:39:32.965Z,15.47
2022-09-11T14:42:02.366Z,15.43
2022-09-11T14:44:32.192Z,15.39
2022-09-11T14:47:00.467Z,15.34
2022-09-11T14:49:29.322Z,15.29
2022-09-11T14:52:00.373Z,15.26
2022-09-11T14:54:30.898Z,15.24
2022-09-11T14:56:59.538Z,15.20
2022-09-11T14:59:28.879Z,15.17
2022-09-11T15:01:58.366Z,15.15
2022-09-11T15:04:26.855Z,15.14
2022-09-11T15:06:56.070Z,15.13
2022-09-11T15:09:24.538Z,15.11
2022-09-11T15:11:53.017Z,15.11
2022-09-11T15:14:44.770Z,15.10
2022-09-11T15:17:14.033Z,15.09
2022-09-11T15:19:45.234Z,15.08
2022-09-11T15:22:16.872Z,15.06
2022-09-11T15:24:48.579Z,15.02
2022-09-11T15:27:18.603Z,14.98
2022-09-11T15:29:47.080Z,14.93
2022-09-11T15:32:15.984Z,14.89
2022-09-11T15:34:47.431Z,14.83
2022-09-11T15:37:16.321Z,14.78
2022-09-11T15:39:44.864Z,14.73
2022-09-11T15:42:16.096Z,14.69
2022-09-11T15:44:45.454Z,14.64
2022-09-11T15:47:14.718Z,14.59
2022-09-11T15:49:47.231Z,14.54
2022-09-11T15:52:15.747Z,14.49
2022-09-11T15:54:48.277Z,14.43
2022-09-11T15:57:17.787Z,14.37
2022-09-11T15:59:46.117Z,14.32
2022-09-11T16:02:14.578Z,14.26
2022-09-11T16:04:43.150Z,14.22
2022-09-11T16:07:12.345Z,14.18
2022-09-11T16:09:41.033Z,14.13
2022-09-11T16:12:10.213Z,14.09
2022-09-11T16:14:38.553Z,14.04
2022-09-11T16:17:08.211Z,13.99
2022-09-11T16:19:38.321Z,13.93
2022-09-11T16:22:08.356Z,13.87
2022-09-11T16:24:37.481Z,13.83
2022-09-11T16:27:08.072Z,13.78
2022-09-11T16:30:20.247Z,13.73
2022-09-11T16:32:29.304Z,13.68
2022-09-11T16:34:58.988Z,13.63
2022-09-11T16:37:28.077Z,13.59
2022-09-11T16:39:58.611Z,13.56
2022-09-11T16:42:27.171Z,13.53
2022-09-11T16:44:55.555Z,13.51
2022-09-11T16:47:34.649Z,13.49
2022-09-11T16:50:06.967Z,13.47
2022-09-11T16:52:38.565Z,13.46
2022-09-11T16:55:10.231Z,13.45
2022-09-11T16:57:39.721Z,13.44
2022-09-11T17:00:11.586Z,13.42
2022-09-11T17:02:42.737Z,13.41
2022-09-11T17:05:12.428Z,13.39
2022-09-11T17:07:40.931Z,13.37
2022-09-11T17:10:10.971Z,13.33
2022-09-11T17:12:40.175Z,13.31
2022-09-11T17:15:10.925Z,13.28
2022-09-11T17:17:41.717Z,13.25
2022-09-11T17:20:12.419Z,13.23
2022-09-11T17:22:41.536Z,13.20
2022-09-11T17:25:10.945Z,13.17
2022-09-11T17:27:40.868Z,13.14
2022-09-11T17:30:13.554Z,13.13
2022-09-11T17:32:42.564Z,13.11
2022-09-11T17:35:13.191Z,13.09
2022-09-11T17:37:45.500Z,13.07
2022-09-11T17:40:14.294Z,13.04
2022-09-11T17:42:48.034Z,13.00
2022-09-11T17:45:16.739Z,12.96
2022-09-11T17:47:48.369Z,12.89
2022-09-11T17:50:17.277Z,12.84
2022-09-11T17:52:45.637Z,12.78
2022-09-11T17:55:14.794Z,12.71
2022-09-11T17:57:45.596Z,12.64
2022-09-11T18:00:15.938Z,12.57
2022-09-11T18:02:46.010Z,12.50
2022-09-11T18:05:15.084Z,12.45
2022-09-11T18:07:43.800Z,12.40
2022-09-11T18:10:13.559Z,12.36
2022-09-11T18:12:42.139Z,12.32
2022-09-11T18:15:14.149Z,12.29
2022-09-11T18:17:42.793Z,12.26
2022-09-11T18:20:11.636Z,12.22
2022-09-11T18:22:40.223Z,12.19
2022-09-11T18:25:09.901Z,12.17
2022-09-11T18:27:39.892Z,12.16
2022-09-11T18:30:12.344Z,12.15
2022-09-11T18:32:40.833Z,12.17
2022-09-11T18:35:11.071Z,12.19
2022-09-11T18:37:40.571Z,12.22
2022-09-11T18:40:09.999Z,12.25
2022-09-11T18:42:41.138Z,12.27
2022-09-11T18:45:12.164Z,12.25
2022-09-11T18:47:42.140Z,12.24
2022-09-11T18:50:12.938Z,12.25
2022-09-11T18:52:42.500Z,12.22
2022-09-11T18:55:12.230Z,12.20
2022-09-11T18:57:43.044Z,12.18
2022-09-11T19:00:17.480Z,12.17
2022-09-11T19:02:46.721Z,12.17
2022-09-11T19:05:16.283Z,12.16
2022-09-11T19:07:46.976Z,12.16
2022-09-11T19:10:15.396Z,12.21
2022-09-11T19:12:47.021Z,12.19
2022-09-11T19:15:25.219Z,12.15
2022-09-11T19:17:58.572Z,12.12
2022-09-11T19:20:29.788Z,12.09
2022-09-11T19:23:02.653Z,12.09
2022-09-11T19:25:35.589Z,12.11
2022-09-11T19:28:04.284Z,12.10
2022-09-11T19:30:32.977Z,12.08
2022-09-11T19:33:05.105Z,12.07
2022-09-11T19:35:33.787Z,12.06
2022-09-11T19:38:02.471Z,12.00
2022-09-11T19:40:31.290Z,12.03
2022-09-11T19:43:00.216Z,12.08
2022-09-11T19:45:33.522Z,12.12
2022-09-11T19:48:05.259Z,12.15
2022-09-11T19:50:35.223Z,12.17
2022-09-11T19:53:03.606Z,12.18
2022-09-11T19:55:34.651Z,12.18
2022-09-11T19:58:04.175Z,12.19
2022-09-11T20:00:35.345Z,12.19
2022-09-11T20:03:05.449Z,12.19
2022-09-11T20:05:34.044Z,12.19
2022-09-11T20:08:02.985Z,12.20
2022-09-11T20:10:31.679Z,12.22
2022-09-11T20:13:00.632Z,12.24
2022-09-11T20:15:29.993Z,12.26
2022-09-11T20:18:00.332Z,12.28
2022-09-11T20:20:29.474Z,12.28
2022-09-11T20:23:00.314Z,12.28
2022-09-11T20:25:30.038Z,12.26
2022-09-11T20:28:00.992Z,12.25
2022-09-11T20:30:32.540Z,12.24
2022-09-11T20:33:01.630Z,12.22
2022-09-11T20:35:30.225Z,12.21
2022-09-11T20:38:00.365Z,12.20
2022-09-11T20:40:31.643Z,12.18
2022-09-11T20:43:01.353Z,12.19
2022-09-11T20:45:35.627Z,12.20
2022-09-11T20:48:05.805Z,12.22
2022-09-11T20:50:33.971Z,12.21
2022-09-11T20:53:02.440Z,12.20
2022-09-11T20:55:30.889Z,12.18
2022-09-11T20:58:00.560Z,12.18
2022-09-11T21:00:29.240Z,12.16
2022-09-11T21:02:57.747Z,12.14
2022-09-11T21:05:26.398Z,12.13
2022-09-11T21:07:55.556Z,12.11
2022-09-11T21:10:23.904Z,12.09
2022-09-11T21:12:52.319Z,12.09
2022-09-11T21:15:23.744Z,12.10
2022-09-11T21:17:52.051Z,12.12
2022-09-11T21:20:23.110Z,12.12
2022-09-11T21:22:51.549Z,12.10
2022-09-11T21:25:19.919Z,12.08
2022-09-11T21:27:48.917Z,12.06
2022-09-11T21:30:17.807Z,12.03
2022-09-11T21:32:46.422Z,12.01
2022-09-11T21:35:15.453Z,11.99
2022-09-11T21:37:43.901Z,11.97
2022-09-11T21:40:13.428Z,11.97
2022-09-11T21:42:41.889Z,11.96
2022-09-11T21:45:11.357Z,11.95
2022-09-11T21:47:40.400Z,11.93
2022-09-11T21:50:10.097Z,11.90
2022-09-11T21:52:38.344Z,11.86
2022-09-11T21:55:07.941Z,11.84
2022-09-11T21:57:36.223Z,11.81
2022-09-11T22:00:08.388Z,11.79
2022-09-11T22:02:36.816Z,11.77
2022-09-11T22:05:06.993Z,11.76
2022-09-11T22:07:36.629Z,11.76
2022-09-11T22:10:07.796Z,11.75
2022-09-11T22:12:36.167Z,11.73
2022-09-11T22:15:07.604Z,11.70
2022-09-11T22:17:35.953Z,11.68
2022-09-11T22:20:06.702Z,11.66
2022-09-11T22:22:38.270Z,11.64
2022-09-11T22:25:08.983Z,11.63
2022-09-11T22:27:37.517Z,11.62
2022-09-11T22:30:09.124Z,11.59
2022-09-11T22:32:37.512Z,11.58
2022-09-11T22:35:06.925Z,11.55
2022-09-11T22:37:35.341Z,11.53
2022-09-11T22:40:09.417Z,11.53
2022-09-11T22:42:37.704Z,11.53
2022-09-11T22:45:08.096Z,11.53
2022-09-11T22:47:36.813Z,11.49
2022-09-11T22:50:07.542Z,11.47
2022-09-11T22:52:36.818Z,11.44
2022-09-11T22:55:07.241Z,11.42
2022-09-11T22:57:35.640Z,11.40
2022-09-11T23:00:06.487Z,11.39
2022-09-11T23:02:35.473Z,11.38
2022-09-11T23:05:23.297Z,11.37
2022-09-11T23:07:53.029Z,11.36
2022-09-11T23:10:22.906Z,11.34
2022-09-11T23:12:51.855Z,11.33
2022-09-11T23:15:20.904Z,11.33
2022-09-11T23:17:49.281Z,11.34
2022-09-11T23:20:18.223Z,11.32
2022-09-11T23:22:46.473Z,11.31
2022-09-11T23:25:16.520Z,11.30
2022-09-11T23:27:45.135Z,11.29
2022-09-11T23:30:14.178Z,11.28
2022-09-11T23:32:42.975Z,11.28
2022-09-11T23:35:14.709Z,11.28
2022-09-11T23:37:45.468Z,11.28
2022-09-11T23:40:14.859Z,11.27
2022-09-11T23:42:43.178Z,11.25
2022-09-11T23:45:13.108Z,11.22
2022-09-11T23:47:41.662Z,11.20
2022-09-11T23:50:10.499Z,11.20
2022-09-11T23:52:39.011Z,11.20
2022-09-11T23:55:09.079Z,11.18
2022-09-11T23:57:37.681Z,11.14
